RYR591 EGJJ-LFBO
Flight info
| Callsign | RYR591 |
|---|---|
| Flight time | 1h 3m |
| Altitude | 35000 |
| Route | DIN R14 NTS UM616 TUPAR DCT CNA DCT UVELI DCT SECHE |
| Aircraft | B738/M-SDE2E3FGHIRWXY/LB1 |
Departure
| Time | 2026-01-18 05:43 |
|---|---|
| Airport | Jersey Airport (EGJJ) |
Arrival
| Time | 2026-01-18 06:47 |
|---|---|
| Airport | Toulouse-Blagnac Airport (LFBO) |
| Time | Latitude | Longitude | Altitude | Speed | Heading |
|---|---|---|---|---|---|
| 2026-01-18 05:29 | 49.20551 | -2.19806 | 279 ft | 0 kts | 175° |
| 2026-01-18 05:35 | 49.20543 | -2.19807 | 279 ft | 3 kts | 190° |
| 2026-01-18 05:35 | 49.20534 | -2.19802 | 280 ft | 0 kts | 352° |
| 2026-01-18 05:38 | 49.20577 | -2.19837 | 283 ft | 12 kts | 310° |
| 2026-01-18 05:38 | 49.20557 | -2.19926 | 279 ft | 11 kts | 183° |
| 2026-01-18 05:38 | 49.20537 | -2.20092 | 284 ft | 9 kts | 290° |
| 2026-01-18 05:39 | 49.20591 | -2.20368 | 282 ft | 11 kts | 287° |
| 2026-01-18 05:40 | 49.20625 | -2.20481 | 279 ft | 9 kts | 302° |
| 2026-01-18 05:41 | 49.20701 | -2.20673 | 280 ft | 7 kts | 63° |
| 2026-01-18 05:41 | 49.20708 | -2.20625 | 279 ft | 0 kts | 84° |
| 2026-01-18 05:42 | 49.20852 | -2.18977 | 330 ft | 147 kts | 82° |
| 2026-01-18 05:43 | 49.21057 | -2.15426 | 1389 ft | 199 kts | 96° |
| 2026-01-18 05:43 | 49.20597 | -2.13430 | 2173 ft | 200 kts | 125° |
| 2026-01-18 05:44 | 49.16396 | -2.10602 | 3466 ft | 259 kts | 168° |
| 2026-01-18 05:44 | 49.12829 | -2.09629 | 4717 ft | 264 kts | 165° |
| 2026-01-18 05:45 | 49.09260 | -2.08329 | 4833 ft | 262 kts | 164° |
| 2026-01-18 05:45 | 49.05890 | -2.06996 | 7303 ft | 230 kts | 165° |
| 2026-01-18 05:46 | 49.02612 | -2.05730 | 8416 ft | 259 kts | 149° |
| 2026-01-18 05:46 | 49.00942 | -2.04662 | 9209 ft | 266 kts | 173° |
| 2026-01-18 05:47 | 48.97214 | -2.05315 | 10660 ft | 283 kts | 185° |
| 2026-01-18 05:47 | 48.90583 | -2.06269 | 11303 ft | 350 kts | 182° |
| 2026-01-18 05:48 | 48.85636 | -2.06663 | 12663 ft | 359 kts | 181° |
| 2026-01-18 05:48 | 48.80586 | -2.06973 | 14098 ft | 367 kts | 181° |
| 2026-01-18 05:49 | 48.75439 | -2.07262 | 15430 ft | 372 kts | 181° |
| 2026-01-18 05:49 | 48.70215 | -2.07553 | 16737 ft | 378 kts | 181° |
| 2026-01-18 05:50 | 48.67609 | -2.07698 | 17367 ft | 381 kts | 181° |
| 2026-01-18 05:50 | 48.59529 | -2.07792 | 19121 ft | 390 kts | 171° |
| 2026-01-18 05:51 | 48.56911 | -2.06940 | 19709 ft | 391 kts | 164° |
| 2026-01-18 05:51 | 48.51861 | -2.03752 | 20808 ft | 396 kts | 156° |
| 2026-01-18 05:52 | 48.46813 | -2.00278 | 21848 ft | 401 kts | 157° |
| 2026-01-18 05:52 | 48.39988 | -1.95660 | 23223 ft | 406 kts | 157° |
| 2026-01-18 05:53 | 48.34804 | -1.92183 | 24108 ft | 410 kts | 158° |
| 2026-01-18 05:53 | 48.29567 | -1.88681 | 24884 ft | 413 kts | 158° |
| 2026-01-18 05:55 | 48.13529 | -1.78425 | 27142 ft | 422 kts | 159° |
| 2026-01-18 05:56 | 47.93725 | -1.72200 | 30200 ft | 411 kts | 175° |
| 2026-01-18 05:59 | 47.67606 | -1.68270 | 32379 ft | 427 kts | 175° |
| 2026-01-18 06:01 | 47.43674 | -1.64969 | 34260 ft | 437 kts | 175° |
| 2026-01-18 06:03 | 47.19360 | -1.61607 | 34953 ft | 437 kts | 168° |
| 2026-01-18 06:05 | 47.00096 | -1.40280 | 34970 ft | 440 kts | 140° |
| 2026-01-18 06:06 | 46.84063 | -1.19378 | 34967 ft | 442 kts | 140° |
| 2026-01-18 06:08 | 46.65803 | -0.95748 | 34975 ft | 438 kts | 140° |
| 2026-01-18 06:10 | 46.47657 | -0.72402 | 34966 ft | 434 kts | 140° |
| 2026-01-18 06:13 | 46.23269 | -0.57248 | 34964 ft | 427 kts | 163° |
| 2026-01-18 06:15 | 46.00699 | -0.46918 | 34961 ft | 424 kts | 162° |
| 2026-01-18 06:17 | 45.78392 | -0.36791 | 34952 ft | 418 kts | 162° |
| 2026-01-18 06:19 | 45.56803 | -0.24927 | 34978 ft | 415 kts | 153° |
| 2026-01-18 06:21 | 45.36013 | -0.10536 | 34938 ft | 415 kts | 154° |
| 2026-01-18 06:23 | 45.15264 | 0.03625 | 34922 ft | 413 kts | 154° |
| 2026-01-18 06:25 | 44.94914 | 0.17401 | 30567 ft | 397 kts | 152° |
| 2026-01-18 06:27 | 44.74821 | 0.30915 | 25119 ft | 412 kts | 152° |
| 2026-01-18 06:27 | 44.72277 | 0.32616 | 24521 ft | 408 kts | 152° |
| 2026-01-18 06:27 | 44.67202 | 0.36004 | 23326 ft | 400 kts | 152° |
| 2026-01-18 06:28 | 44.59776 | 0.40954 | 21485 ft | 387 kts | 153° |
| 2026-01-18 06:29 | 44.54961 | 0.44159 | 20340 ft | 379 kts | 153° |
| 2026-01-18 06:29 | 44.50230 | 0.47303 | 19236 ft | 373 kts | 154° |
| 2026-01-18 06:30 | 44.47894 | 0.48853 | 18683 ft | 370 kts | 154° |
| 2026-01-18 06:30 | 44.40955 | 0.53435 | 16670 ft | 369 kts | 154° |
| 2026-01-18 06:31 | 44.36334 | 0.56457 | 15482 ft | 364 kts | 154° |
| 2026-01-18 06:31 | 44.31788 | 0.59425 | 14415 ft | 358 kts | 154° |
| 2026-01-18 06:32 | 44.29539 | 0.60893 | 13895 ft | 355 kts | 154° |
| 2026-01-18 06:33 | 44.20705 | 0.66649 | 11738 ft | 345 kts | 154° |
| 2026-01-18 06:33 | 44.18538 | 0.68058 | 11224 ft | 343 kts | 154° |
| 2026-01-18 06:33 | 44.16398 | 0.69448 | 10961 ft | 333 kts | 154° |
| 2026-01-18 06:34 | 44.10408 | 0.73333 | 10527 ft | 301 kts | 154° |
| 2026-01-18 06:34 | 44.06753 | 0.75701 | 10283 ft | 283 kts | 154° |
| 2026-01-18 06:35 | 44.03295 | 0.77938 | 10050 ft | 266 kts | 154° |
| 2026-01-18 06:35 | 44.01644 | 0.79005 | 9952 ft | 258 kts | 154° |
| 2026-01-18 06:36 | 43.98433 | 0.81080 | 9463 ft | 253 kts | 154° |
| 2026-01-18 06:36 | 43.93701 | 0.84131 | 8674 ft | 247 kts | 154° |
| 2026-01-18 06:37 | 43.90598 | 0.86134 | 8157 ft | 244 kts | 151° |
| 2026-01-18 06:37 | 43.89322 | 0.87633 | 7872 ft | 243 kts | 124° |
| 2026-01-18 06:38 | 43.88186 | 0.94536 | 7111 ft | 251 kts | 98° |
| 2026-01-18 06:38 | 43.87868 | 0.99305 | 6635 ft | 246 kts | 99° |
| 2026-01-18 06:39 | 43.87699 | 1.01617 | 6402 ft | 244 kts | 99° |
| 2026-01-18 06:39 | 43.87343 | 1.06258 | 5792 ft | 245 kts | 99° |
| 2026-01-18 06:40 | 43.86654 | 1.10847 | 5065 ft | 244 kts | 125° |
| 2026-01-18 06:40 | 43.82972 | 1.15286 | 4733 ft | 219 kts | 143° |
| 2026-01-18 06:41 | 43.80556 | 1.17797 | 4242 ft | 212 kts | 142° |
| 2026-01-18 06:41 | 43.78247 | 1.20195 | 3715 ft | 202 kts | 143° |
| 2026-01-18 06:42 | 43.77141 | 1.21346 | 3503 ft | 195 kts | 143° |
| 2026-01-18 06:42 | 43.74090 | 1.24520 | 2892 ft | 174 kts | 143° |
| 2026-01-18 06:42 | 43.73457 | 1.25179 | 2740 ft | 169 kts | 143° |
| 2026-01-18 06:43 | 43.71704 | 1.27003 | 2345 ft | 153 kts | 144° |
| 2026-01-18 06:43 | 43.70024 | 1.28752 | 1942 ft | 154 kts | 145° |
| 2026-01-18 06:44 | 43.67398 | 1.31481 | 1302 ft | 155 kts | 146° |
| 2026-01-18 06:45 | 43.65721 | 1.33238 | 867 ft | 149 kts | 146° |
| 2026-01-18 06:45 | 43.64065 | 1.34967 | 497 ft | 145 kts | 145° |
| 2026-01-18 06:46 | 43.62857 | 1.36199 | 490 ft | 66 kts | 144° |
| 2026-01-18 06:46 | 43.62452 | 1.36725 | 490 ft | 29 kts | 93° |
| 2026-01-18 06:47 | 43.62485 | 1.37150 | 488 ft | 13 kts | 83° |
| 2026-01-18 06:47 | 43.62516 | 1.37258 | 490 ft | 12 kts | 55° |
| 2026-01-18 06:47 | 43.62616 | 1.37439 | 491 ft | 11 kts | 52° |
| 2026-01-18 06:48 | 43.62722 | 1.37443 | 487 ft | 9 kts | 325° |
| 2026-01-18 06:49 | 43.62834 | 1.37318 | 493 ft | 24 kts | 322° |
| 2026-01-18 06:49 | 43.62977 | 1.37174 | 482 ft | 23 kts | 324° |
| 2026-01-18 06:49 | 43.63053 | 1.36952 | 485 ft | 1 kts | 303° |
| 2026-01-18 06:50 | 43.63150 | 1.36914 | 493 ft | 5 kts | 65° |
| 2026-01-18 06:50 | 43.63160 | 1.36949 | 490 ft | 2 kts | 71° |
| 2026-01-18 06:51 | 43.63163 | 1.36962 | 493 ft | 0 kts | 71° |